Time;durP1;ratioP1;P1;durP2;ratioP2;P2;SDS_P1;SDS_P2;PMS_P1;PMS_P2;Temp;Humidity;BMP_temperature;BMP_pressure;BME280_temperature;BME280_humidity;BME280_pressure;Samples;Min_cycle;Max_cycle;Signal;HPM_P1;HPM_P2
2022/03/15 00:02:16;;;;;;;;;;;76.90;1945.60;;;;;;5084251;28;20292;-76
2022/03/15 00:04:42;;;;;;;;;;;77.00;1920.00;;;;;;5087777;28;19908;-78
2022/03/15 00:07:10;;;;;;;;;;;76.90;1920.00;;;;;;5086624;28;19951;-76
2022/03/15 00:09:37;;;;;;;;;;;76.80;1945.60;;;;;;5086543;28;20245;-77
2022/03/15 00:12:05;;;;;;;;;;;52.10;1945.60;;;;;;5098099;28;19920;-77
2022/03/15 00:14:30;;;;;;;;;;;77.00;1945.60;;;;;;5083749;28;19950;-77
2022/03/15 00:16:57;;;;;;;;;;;77.40;1894.40;;;;;;5084979;28;19904;-76
2022/03/15 00:19:23;;;;;;;;;;;77.60;1868.80;;;;;;5086566;28;20305;-77
2022/03/15 00:21:49;;;;;;;;;;;102.40;1843.20;;;;;;5086293;28;19904;-77
2022/03/15 00:24:15;;;;;;;;;;;77.70;1843.20;;;;;;5088140;28;20328;-78
2022/03/15 00:26:41;;;;;;;;;;;77.50;1843.20;;;;;;5085036;28;20623;-77
2022/03/15 00:29:07;;;;;;;;;;;77.10;1868.80;;;;;;5083812;28;19904;-78
2022/03/15 00:31:32;;;;;;;;;;;77.20;1894.40;;;;;;5085360;28;20394;-77
2022/03/15 00:33:58;;;;;;;;;;;77.50;1894.40;;;;;;5083571;28;19917;-77
2022/03/15 00:36:25;;;;;;;;;;;77.60;1868.80;;;;;;5087346;28;19931;-77
2022/03/15 00:38:51;;;;;;;;;;;77.60;1843.20;;;;;;5084957;28;20322;-76
2022/03/15 00:41:16;;;;;;;;;;;77.70;1843.20;;;;;;5085272;28;19918;-76
2022/03/15 00:43:42;;;;;;;;;;;102.40;1843.20;;;;;;5086236;28;19965;-77
2022/03/15 00:46:08;;;;;;;;;;;77.60;1843.20;;;;;;5083812;28;19951;-77
2022/03/15 00:48:34;;;;;;;;;;;77.70;1868.80;;;;;;5086558;28;19909;-76
2022/03/15 00:50:59;;;;;;;;;;;102.40;1843.20;;;;;;5083456;28;19917;-77
2022/03/15 00:53:25;;;;;;;;;;;102.40;1843.20;;;;;;5086643;28;19950;-77
2022/03/15 00:55:51;;;;;;;;;;;102.40;1843.20;;;;;;5085795;28;19904;-76
2022/03/15 00:58:16;;;;;;;;;;;102.40;1843.20;;;;;;5085197;28;19967;-76
2022/03/15 01:00:48;;;;;;;;;;;102.40;1843.20;;;;;;5083083;28;19953;-77
2022/03/15 01:03:14;;;;;;;;;;;102.40;1843.20;;;;;;5085919;28;19908;-76
2022/03/15 01:05:40;;;;;;;;;;;102.50;1843.20;;;;;;5083075;28;19904;-77
2022/03/15 01:08:05;;;;;;;;;;;102.60;1817.60;;;;;;5083330;28;20360;-77
2022/03/15 01:10:31;;;;;;;;;;;77.70;1843.20;;;;;;5087807;28;19969;-77
2022/03/15 01:12:56;;;;;;;;;;;77.50;1868.80;;;;;;5083906;28;19912;-76
2022/03/15 01:15:24;;;;;;;;;;;77.30;1894.40;;;;;;5082757;28;19904;-75
2022/03/15 01:17:50;;;;;;;;;;;77.20;1920.00;;;;;;5083860;28;19912;-76
2022/03/15 01:20:17;;;;;;;;;;;77.30;1920.00;;;;;;5083794;28;19904;-77
2022/03/15 01:22:42;;;;;;;;;;;77.40;1894.40;;;;;;5083680;28;19904;-76
2022/03/15 01:25:08;;;;;;;;;;;77.30;1894.40;;;;;;5087085;28;19915;-76
2022/03/15 01:27:34;;;;;;;;;;;77.30;1920.00;;;;;;5085092;28;19931;-77
2022/03/15 01:30:00;;;;;;;;;;;77.20;1945.60;;;;;;5085698;28;19974;-76
2022/03/15 01:32:26;;;;;;;;;;;77.10;1945.60;;;;;;5082852;28;19952;-76
2022/03/15 01:34:51;;;;;;;;;;;77.10;1945.60;;;;;;5084134;28;19990;-76
2022/03/15 01:37:17;;;;;;;;;;;77.10;1945.60;;;;;;5083853;28;20349;-76
2022/03/15 01:39:42;;;;;;;;;;;77.10;1971.20;;;;;;5086674;28;19907;-76
2022/03/15 01:42:08;;;;;;;;;;;77.10;1971.20;;;;;;5082795;28;19915;-77
2022/03/15 01:44:34;;;;;;;;;;;77.20;1971.20;;;;;;5083745;28;19908;-76
2022/03/15 01:47:00;;;;;;;;;;;77.30;1945.60;;;;;;5084851;28;19904;-77
2022/03/15 01:49:26;;;;;;;;;;;76.80;1971.20;;;;;;5084919;28;19939;-75
2022/03/15 01:51:52;;;;;;;;;;;76.80;1996.80;;;;;;5082554;28;19919;-76
2022/03/15 01:54:20;;;;;;;;;;;77.10;1945.60;;;;;;5083528;28;19904;-77
2022/03/15 01:56:45;;;;;;;;;;;77.20;1945.60;;;;;;5084488;28;20375;-76
2022/03/15 01:59:12;;;;;;;;;;;77.30;1920.00;;;;;;5082738;28;19943;-76
2022/03/15 02:01:38;;;;;;;;;;;77.20;1945.60;;;;;;5084130;28;20379;-76
2022/03/15 02:04:04;;;;;;;;;;;77.30;1945.60;;;;;;5084323;28;19912;-76
2022/03/15 02:06:29;;;;;;;;;;;77.30;1945.60;;;;;;5082070;28;20318;-77
2022/03/15 02:08:55;;;;;;;;;;;77.20;1920.00;;;;;;5083099;28;19962;-77
2022/03/15 02:11:21;;;;;;;;;;;77.20;1945.60;;;;;;5083960;28;20003;-76
2022/03/15 02:13:47;;;;;;;;;;;77.20;1971.20;;;;;;5082882;28;19943;-76
2022/03/15 02:16:13;;;;;;;;;;;52.10;1971.20;;;;;;5081447;28;19904;-77
2022/03/15 02:18:38;;;;;;;;;;;76.90;1996.80;;;;;;5083179;28;19940;-76
2022/03/15 02:21:04;;;;;;;;;;;52.10;1971.20;;;;;;5081781;28;19944;-76
2022/03/15 02:23:29;;;;;;;;;;;52.10;1996.80;;;;;;5082046;28;19904;-77
2022/03/15 02:25:55;;;;;;;;;;;76.80;1996.80;;;;;;5085069;28;19904;-76
2022/03/15 02:28:21;;;;;;;;;;;77.10;1971.20;;;;;;5082146;28;20399;-76
2022/03/15 02:30:46;;;;;;;;;;;77.20;1971.20;;;;;;5083011;28;19966;-77
2022/03/15 02:33:12;;;;;;;;;;;77.00;1971.20;;;;;;5082080;28;19916;-76
2022/03/15 02:35:38;;;;;;;;;;;77.10;1996.80;;;;;;5082541;28;20385;-76
2022/03/15 02:38:04;;;;;;;;;;;77.10;1996.80;;;;;;5083592;28;19912;-77
2022/03/15 02:40:29;;;;;;;;;;;77.30;1971.20;;;;;;5082810;28;19911;-76
2022/03/15 02:42:55;;;;;;;;;;;77.10;1971.20;;;;;;5082019;28;19954;-77
2022/03/15 02:45:22;;;;;;;;;;;76.90;1971.20;;;;;;5083269;28;19927;-76
2022/03/15 02:47:48;;;;;;;;;;;77.10;1996.80;;;;;;5081410;28;19958;-77
2022/03/15 02:50:14;;;;;;;;;;;77.00;1996.80;;;;;;5081260;28;20396;-76
2022/03/15 02:52:39;;;;;;;;;;;77.00;1996.80;;;;;;5082351;28;19989;-77
2022/03/15 02:55:06;;;;;;;;;;;77.10;1971.20;;;;;;5082971;28;19912;-77
2022/03/15 02:57:31;;;;;;;;;;;77.00;1996.80;;;;;;5081798;28;19904;-77
2022/03/15 02:59:57;;;;;;;;;;;77.00;1996.80;;;;;;5083174;28;20416;-77
2022/03/15 03:02:23;;;;;;;;;;;77.00;1996.80;;;;;;5080852;28;19982;-76
2022/03/15 03:04:50;;;;;;;;;;;77.10;1996.80;;;;;;5084675;28;19926;-77
2022/03/15 03:07:17;;;;;;;;;;;76.90;1996.80;;;;;;5082855;28;19905;-77
2022/03/15 03:09:42;;;;;;;;;;;77.00;1996.80;;;;;;5083044;28;19927;-76
2022/03/15 03:12:09;;;;;;;;;;;77.00;1996.80;;;;;;5074730;28;20361;-76
2022/03/15 03:14:35;;;;;;;;;;;76.90;1996.80;;;;;;5082425;28;19908;-76
2022/03/15 03:17:00;;;;;;;;;;;76.90;2022.40;;;;;;5080596;28;19911;-76
2022/03/15 03:19:26;;;;;;;;;;;76.80;2022.40;;;;;;5078454;28;19904;-77
2022/03/15 03:21:51;;;;;;;;;;;76.90;2022.40;;;;;;5076185;28;19967;-77
2022/03/15 03:24:21;;;;;;;;;;;77.10;2022.40;;;;;;5084521;28;19923;-76
2022/03/15 03:26:46;;;;;;;;;;;77.20;1996.80;;;;;;5083296;28;19904;-76
2022/03/15 03:29:14;;;;;;;;;;;77.00;1996.80;;;;;;5075918;28;19904;-76
2022/03/15 03:31:42;;;;;;;;;;;77.00;2022.40;;;;;;5083195;28;19919;-76
2022/03/15 03:34:08;;;;;;;;;;;51.90;2048.00;;;;;;5084393;28;20004;-76
2022/03/15 03:36:36;;;;;;;;;;;51.70;2073.60;;;;;;5080497;28;19999;-76
2022/03/15 03:39:05;;;;;;;;;;;51.80;2099.20;;;;;;5084309;28;19907;-76
2022/03/15 03:41:30;;;;;;;;;;;51.50;2099.20;;;;;;5084178;28;20283;-76
2022/03/15 03:43:56;;;;;;;;;;;51.30;2150.40;;;;;;5081282;28;19908;-76
2022/03/15 03:46:22;;;;;;;;;;;26.20;2150.40;;;;;;5084763;28;19950;-76
2022/03/15 03:48:50;;;;;;;;;;;26.00;2176.00;;;;;;5081813;28;19916;-76
2022/03/15 03:51:19;;;;;;;;;;;26.40;2176.00;;;;;;5082422;28;19916;-76
2022/03/15 03:53:45;;;;;;;;;;;51.50;2150.40;;;;;;5080544;28;19962;-76
2022/03/15 03:56:11;;;;;;;;;;;51.70;2099.20;;;;;;5084049;28;19904;-77
2022/03/15 03:58:37;;;;;;;;;;;51.50;2099.20;;;;;;5081511;28;19908;-76
2022/03/15 04:01:02;;;;;;;;;;;51.60;2124.80;;;;;;5082652;28;19995;-76
2022/03/15 04:03:31;;;;;;;;;;;26.50;2124.80;;;;;;5084055;28;19908;-76
2022/03/15 04:05:57;;;;;;;;;;;26.40;2150.40;;;;;;5080884;28;19904;-76
2022/03/15 04:08:23;;;;;;;;;;;51.30;2150.40;;;;;;5085660;28;19926;-76
2022/03/15 04:10:50;;;;;;;;;;;51.40;2150.40;;;;;;5085671;28;20283;-76
2022/03/15 04:13:18;;;;;;;;;;;26.50;2150.40;;;;;;5086326;28;20391;-76
2022/03/15 04:15:45;;;;;;;;;;;26.30;2150.40;;;;;;5084903;28;19908;-77
2022/03/15 04:18:10;;;;;;;;;;;26.20;2201.60;;;;;;5087507;28;19907;-77
2022/03/15 04:20:36;;;;;;;;;;;26.00;2201.60;;;;;;5085720;28;19928;-76
2022/03/15 04:23:02;;;;;;;;;;;25.90;2201.60;;;;;;5084280;28;19911;-77
2022/03/15 04:25:27;;;;;;;;;;;0.90;2201.60;;;;;;5084535;28;19926;-76
2022/03/15 04:27:56;;;;;;;;;;;0.60;2201.60;;;;;;5087492;28;20271;-76
2022/03/15 04:30:22;;;;;;;;;;;0.60;2201.60;;;;;;5086168;28;19961;-76
2022/03/15 04:32:48;;;;;;;;;;;0.70;2201.60;;;;;;5086130;28;19924;-76
2022/03/15 04:35:14;;;;;;;;;;;0.50;2201.60;;;;;;5083639;28;19968;-76
2022/03/15 04:37:40;;;;;;;;;;;0.30;2201.60;;;;;;5086094;28;20356;-76
2022/03/15 04:40:07;;;;;;;;;;;0.60;2201.60;;;;;;5085317;28;19904;-76
2022/03/15 04:42:34;;;;;;;;;;;0.70;2201.60;;;;;;5083903;28;19904;-76
2022/03/15 04:44:59;;;;;;;;;;;0.80;2201.60;;;;;;5086596;28;19942;-76
2022/03/15 04:47:25;;;;;;;;;;;0.80;2201.60;;;;;;5084753;28;19939;-76
2022/03/15 04:49:50;;;;;;;;;;;25.60;2201.60;;;;;;5086628;28;19916;-76
2022/03/15 04:52:17;;;;;;;;;;;25.60;2201.60;;;;;;5084770;28;19912;-76
2022/03/15 04:54:43;;;;;;;;;;;0.80;2201.60;;;;;;5086685;28;19911;-76
2022/03/15 04:57:09;;;;;;;;;;;0.60;2201.60;;;;;;5083654;28;19908;-76
2022/03/15 04:59:34;;;;;;;;;;;0.70;2201.60;;;;;;5085884;28;20014;-76
2022/03/15 05:02:00;;;;;;;;;;;0.60;2201.60;;;;;;5085019;28;19908;-76
2022/03/15 05:04:25;;;;;;;;;;;0.60;2201.60;;;;;;5087611;28;19955;-76
2022/03/15 05:06:51;;;;;;;;;;;0.70;2201.60;;;;;;5083702;28;19904;-76
2022/03/15 05:09:17;;;;;;;;;;;0.60;2201.60;;;;;;5078891;28;19912;-76
2022/03/15 05:11:46;;;;;;;;;;;0.80;2201.60;;;;;;5081464;28;19966;-77
2022/03/15 05:14:12;;;;;;;;;;;25.60;2201.60;;;;;;5078380;28;19904;-76
2022/03/15 05:16:39;;;;;;;;;;;25.60;2201.60;;;;;;5086015;28;20383;-77
2022/03/15 05:19:04;;;;;;;;;;;25.60;2201.60;;;;;;5084982;28;20287;-76
2022/03/15 05:21:30;;;;;;;;;;;25.70;2201.60;;;;;;5083034;28;20015;-76
2022/03/15 05:23:56;;;;;;;;;;;26.10;2201.60;;;;;;5084032;28;19927;-77
2022/03/15 05:26:22;;;;;;;;;;;26.40;2201.60;;;;;;5085900;28;20280;-76
2022/03/15 05:28:49;;;;;;;;;;;51.30;2227.20;;;;;;5084115;28;19909;-76
2022/03/15 05:31:19;;;;;;;;;;;51.30;2227.20;;;;;;5082529;28;20364;-76
2022/03/15 05:33:46;;;;;;;;;;;51.50;2227.20;;;;;;5083859;28;20371;-76
2022/03/15 05:36:11;;;;;;;;;;;51.80;2201.60;;;;;;5083266;28;19911;-76
2022/03/15 05:38:37;;;;;;;;;;;51.50;2227.20;;;;;;5084687;28;19904;-76
2022/03/15 05:41:02;;;;;;;;;;;26.40;2201.60;;;;;;5083398;28;19905;-76
2022/03/15 05:43:28;;;;;;;;;;;26.00;2201.60;;;;;;5083612;28;20275;-76
2022/03/15 05:45:54;;;;;;;;;;;25.90;2201.60;;;;;;5085828;28;19934;-76
2022/03/15 05:48:19;;;;;;;;;;;25.80;2201.60;;;;;;5083592;28;19911;-77
2022/03/15 05:50:45;;;;;;;;;;;25.90;2201.60;;;;;;5083896;28;19916;-76
2022/03/15 05:53:11;;;;;;;;;;;25.90;2201.60;;;;;;5084060;28;19935;-76
2022/03/15 05:55:37;;;;;;;;;;;26.00;2201.60;;;;;;5083758;28;20291;-76
2022/03/15 05:58:03;;;;;;;;;;;26.00;2201.60;;;;;;5085448;28;19904;-76
2022/03/15 06:00:29;;;;;;;;;;;26.00;2201.60;;;;;;5081060;28;19915;-76
2022/03/15 06:02:55;;;;;;;;;;;26.10;2201.60;;;;;;5085539;28;19916;-76
2022/03/15 06:05:21;;;;;;;;;;;26.40;2201.60;;;;;;5080880;28;19904;-76
2022/03/15 06:07:48;;;;;;;;;;;26.50;2201.60;;;;;;5083230;28;20469;-76
2022/03/15 06:10:15;;;;;;;;;;;51.20;2227.20;;;;;;5084186;28;20368;-76
2022/03/15 06:12:41;;;;;;;;;;;51.30;2227.20;;;;;;5079483;28;19912;-76
2022/03/15 06:15:07;;;;;;;;;;;51.60;2227.20;;;;;;5084449;28;19904;-77
2022/03/15 06:17:42;;;;;;;;;;;51.80;2227.20;;;;;;5082122;28;20295;-76
2022/03/15 06:20:08;;;;;;;;;;;52.00;2227.20;;;;;;5080496;28;19904;-76
2022/03/15 06:22:34;;;;;;;;;;;52.10;2227.20;;;;;;5081382;28;19910;-76
2022/03/15 06:24:59;;;;;;;;;;;77.00;2227.20;;;;;;5081838;28;20280;-77
2022/03/15 06:27:25;;;;;;;;;;;77.20;2227.20;;;;;;5083501;28;19910;-76
2022/03/15 06:29:51;;;;;;;;;;;77.30;2227.20;;;;;;5084251;28;19904;-76
2022/03/15 06:32:16;;;;;;;;;;;77.50;2227.20;;;;;;5085091;28;19928;-75
2022/03/15 06:34:42;;;;;;;;;;;77.60;2227.20;;;;;;5082721;28;20349;-76
2022/03/15 06:37:07;;;;;;;;;;;77.70;2227.20;;;;;;5084337;28;19904;-76
2022/03/15 06:39:33;;;;;;;;;;;77.70;2227.20;;;;;;5084521;28;19904;-76
2022/03/15 06:41:59;;;;;;;;;;;102.50;2227.20;;;;;;5084394;28;20312;-75
2022/03/15 06:44:24;;;;;;;;;;;102.70;2227.20;;;;;;5084968;28;19908;-76
2022/03/15 06:46:50;;;;;;;;;;;102.90;2201.60;;;;;;5083733;28;20280;-76
2022/03/15 06:49:16;;;;;;;;;;;103.10;2150.40;;;;;;5083276;28;19926;-79
2022/03/15 06:51:41;;;;;;;;;;;103.30;2124.80;;;;;;5084553;28;19959;-76
2022/03/15 06:54:07;;;;;;;;;;;128.30;2124.80;;;;;;5083077;28;19904;-76
2022/03/15 06:56:34;;;;;;;;;;;128.60;2073.60;;;;;;5084305;28;19904;-76
2022/03/15 06:59:00;;;;;;;;;;;128.70;2073.60;;;;;;5082192;28;19995;-76
2022/03/15 07:01:25;;;;;;;;;;;153.60;2048.00;;;;;;5082969;28;20002;-76
2022/03/15 07:03:51;;;;;;;;;;;153.80;2022.40;;;;;;5079398;28;19909;-78
2022/03/15 07:06:17;;;;;;;;;;;154.00;1971.20;;;;;;5072673;28;19970;-77
2022/03/15 07:08:42;;;;;;;;;;;154.10;1945.60;;;;;;5073202;28;19999;-78
2022/03/15 07:11:08;;;;;;;;;;;154.40;1894.40;;;;;;5073894;28;20360;-77
2022/03/15 07:13:33;;;;;;;;;;;154.50;1894.40;;;;;;5073871;28;19912;-78
2022/03/15 07:15:59;;;;;;;;;;;154.50;1868.80;;;;;;5077645;28;19908;-77
2022/03/15 07:18:24;;;;;;;;;;;179.30;1868.80;;;;;;5094198;28;20328;-78
2022/03/15 07:20:50;;;;;;;;;;;179.50;1843.20;;;;;;5092806;28;19904;-77
2022/03/15 07:23:17;;;;;;;;;;;179.70;1817.60;;;;;;5093860;28;19904;-78
2022/03/15 07:25:42;;;;;;;;;;;179.70;1817.60;;;;;;5094056;28;19908;-77
2022/03/15 07:28:08;;;;;;;;;;;179.90;1792.00;;;;;;5094356;28;19911;-77
2022/03/15 07:30:34;;;;;;;;;;;180.00;1792.00;;;;;;5091962;28;19908;-77
2022/03/15 07:32:59;;;;;;;;;;;204.80;1766.40;;;;;;5092292;28;19916;-76
2022/03/15 07:35:25;;;;;;;;;;;204.80;1766.40;;;;;;5092570;28;20253;-77
2022/03/15 07:37:58;;;;;;;;;;;205.00;1766.40;;;;;;5094064;28;20435;-76
2022/03/15 07:40:25;;;;;;;;;;;205.20;1740.80;;;;;;5094707;28;20283;-79
2022/03/15 07:42:52;;;;;;;;;;;205.30;1740.80;;;;;;5094717;28;20309;-76
2022/03/15 07:45:17;;;;;;;;;;;205.40;1715.20;;;;;;5096178;28;19912;-75
2022/03/15 07:47:43;;;;;;;;;;;205.50;1715.20;;;;;;5097644;28;19950;-77
2022/03/15 07:50:09;;;;;;;;;;;205.70;1689.60;;;;;;5096374;28;20391;-78
2022/03/15 07:52:34;;;;;;;;;;;230.40;1664.00;;;;;;5096407;28;19916;-77
2022/03/15 07:55:00;;;;;;;;;;;230.50;1664.00;;;;;;5096346;28;19987;-78
2022/03/15 07:57:26;;;;;;;;;;;230.50;1638.40;;;;;;5096591;28;19908;-78
2022/03/15 07:59:51;;;;;;;;;;;230.70;1612.80;;;;;;5089986;28;19987;-78
2022/03/15 08:02:17;;;;;;;;;;;230.70;1612.80;;;;;;5084515;28;20012;-78
2022/03/15 08:04:43;;;;;;;;;;;230.90;1638.40;;;;;;5082041;28;19911;-77
2022/03/15 08:07:09;;;;;;;;;;;231.10;1612.80;;;;;;5076442;28;19915;-81
2022/03/15 08:09:35;;;;;;;;;;;231.20;1612.80;;;;;;5076134;28;20348;-77
2022/03/15 08:12:00;;;;;;;;;;;256.00;1612.80;;;;;;5075807;28;19919;-78
2022/03/15 08:14:26;;;;;;;;;;;256.10;1612.80;;;;;;5077069;28;19905;-77
2022/03/15 08:16:52;;;;;;;;;;;256.20;1561.60;;;;;;5083404;28;19905;-77
2022/03/15 08:19:18;;;;;;;;;;;256.30;1536.00;;;;;;5085476;28;19943;-78
2022/03/15 08:21:44;;;;;;;;;;;256.40;1561.60;;;;;;5081487;28;19904;-77
2022/03/15 08:24:11;;;;;;;;;;;256.50;1536.00;;;;;;5075706;28;19908;-77
2022/03/15 08:26:38;;;;;;;;;;;256.70;1510.40;;;;;;5075392;28;19991;-78
2022/03/15 08:29:07;;;;;;;;;;;256.80;1484.80;;;;;;5075395;28;19973;-77
2022/03/15 08:31:32;;;;;;;;;;;256.90;1459.20;;;;;;5075297;28;19905;-77
2022/03/15 08:33:58;;;;;;;;;;;281.60;1459.20;;;;;;5075117;28;19912;-78
2022/03/15 08:36:24;;;;;;;;;;;281.70;1433.60;;;;;;5076565;28;19908;-77
2022/03/15 08:38:50;;;;;;;;;;;281.70;1433.60;;;;;;5076202;28;19905;-77
2022/03/15 08:41:16;;;;;;;;;;;281.80;1459.20;;;;;;5075345;28;19904;-77
2022/03/15 08:43:41;;;;;;;;;;;282.00;1433.60;;;;;;5075077;28;20375;-77
2022/03/15 08:46:07;;;;;;;;;;;282.10;1433.60;;;;;;5076569;28;20294;-78
2022/03/15 08:48:33;;;;;;;;;;;282.20;1433.60;;;;;;5075204;28;20410;-78
2022/03/15 08:51:01;;;;;;;;;;;282.40;1408.00;;;;;;5075093;28;19917;-77
2022/03/15 08:53:32;;;;;;;;;;;282.50;1382.40;;;;;;5073934;28;19919;-78
2022/03/15 08:55:58;;;;;;;;;;;307.20;1433.60;;;;;;5076085;28;19905;-77
2022/03/15 08:58:24;;;;;;;;;;;307.30;1382.40;;;;;;5074927;28;20267;-77
2022/03/15 09:00:50;;;;;;;;;;;307.40;1382.40;;;;;;5074809;28;19909;-77
2022/03/15 09:03:15;;;;;;;;;;;307.30;1331.20;;;;;;5074701;28;19909;-76
2022/03/15 09:05:41;;;;;;;;;;;307.40;1356.80;;;;;;5076103;28;19919;-78
2022/03/15 09:08:06;;;;;;;;;;;307.60;1356.80;;;;;;5074387;28;20253;-82
2022/03/15 09:10:32;;;;;;;;;;;307.70;1331.20;;;;;;5075037;28;19958;-78
2022/03/15 09:12:58;;;;;;;;;;;307.80;1331.20;;;;;;5074396;28;20399;-77
2022/03/15 09:15:23;;;;;;;;;;;307.90;1280.00;;;;;;5074718;28;19951;-77
2022/03/15 09:17:49;;;;;;;;;;;308.00;1254.40;;;;;;5075743;28;19913;-77
2022/03/15 09:20:15;;;;;;;;;;;332.80;1305.60;;;;;;5085865;28;19912;-79
2022/03/15 09:22:41;;;;;;;;;;;332.80;1280.00;;;;;;5083189;28;19940;-78
2022/03/15 09:25:07;;;;;;;;;;;332.80;1228.80;;;;;;5085341;28;19911;-77
2022/03/15 09:27:33;;;;;;;;;;;332.80;1228.80;;;;;;5081410;28;19911;-78
2022/03/15 09:29:58;;;;;;;;;;;333.00;1228.80;;;;;;5080922;28;19987;-79
2022/03/15 09:32:25;;;;;;;;;;;333.10;1177.60;;;;;;5080707;28;20019;-78
2022/03/15 09:34:50;;;;;;;;;;;333.10;1177.60;;;;;;5094950;28;19911;-81
2022/03/15 09:37:16;;;;;;;;;;;333.20;1177.60;;;;;;5090995;28;19908;-78
2022/03/15 09:39:42;;;;;;;;;;;333.20;1152.00;;;;;;5083494;28;19904;-80
2022/03/15 09:42:09;;;;;;;;;;;333.30;1177.60;;;;;;5083259;28;20344;-80
2022/03/15 09:44:35;;;;;;;;;;;333.40;1152.00;;;;;;5088386;28;19916;-79
2022/03/15 09:47:02;;;;;;;;;;;333.50;1177.60;;;;;;5096219;28;19904;-80
2022/03/15 09:49:28;;;;;;;;;;;333.60;1152.00;;;;;;5094738;28;20370;-82
2022/03/15 09:51:55;;;;;;;;;;;333.50;1152.00;;;;;;5091442;28;19916;-77
2022/03/15 09:54:22;;;;;;;;;;;333.70;1100.80;;;;;;5084222;28;19973;-79
2022/03/15 09:56:48;;;;;;;;;;;358.40;1126.40;;;;;;5074070;28;19908;-79
2022/03/15 09:59:16;;;;;;;;;;;358.50;1075.20;;;;;;5074029;28;19912;-78
2022/03/15 10:01:45;;;;;;;;;;;358.60;1100.80;;;;;;5074795;28;19908;-78
2022/03/15 10:04:10;;;;;;;;;;;358.80;1100.80;;;;;;5091227;28;19965;-78
2022/03/15 10:06:37;;;;;;;;;;;359.00;1049.60;;;;;;5079694;28;19908;-78
2022/03/15 10:09:03;;;;;;;;;;;359.00;1075.20;;;;;;5073685;28;19911;-78
2022/03/15 10:11:29;;;;;;;;;;;359.00;1075.20;;;;;;5087082;28;20376;-77
2022/03/15 10:13:54;;;;;;;;;;;359.00;1075.20;;;;;;5094812;28;20045;-78
2022/03/15 10:16:21;;;;;;;;;;;359.20;1024.00;;;;;;5093583;28;19927;-78
2022/03/15 10:18:57;;;;;;;;;;;359.20;1024.00;;;;;;5094949;28;19904;-79
2022/03/15 10:21:26;;;;;;;;;;;384.00;1024.00;;;;;;5094757;28;19911;-78
2022/03/15 10:23:54;;;;;;;;;;;384.00;1049.60;;;;;;5093603;28;20383;-78
2022/03/15 10:26:24;;;;;;;;;;;384.00;1024.00;;;;;;5093408;28;19904;-78
2022/03/15 10:28:53;;;;;;;;;;;384.10;1024.00;;;;;;5094794;28;20458;-78
2022/03/15 10:31:23;;;;;;;;;;;384.40;1024.00;;;;;;5094706;28;19908;-78
2022/03/15 10:33:50;;;;;;;;;;;384.60;998.40;;;;;;5093445;28;20439;-79
2022/03/15 10:36:19;;;;;;;;;;;384.40;998.40;;;;;;5095391;28;19904;-79
2022/03/15 10:38:56;;;;;;;;;;;384.70;998.40;;;;;;5094767;28;19930;-78
2022/03/15 10:41:22;;;;;;;;;;;384.60;998.40;;;;;;5093091;28;19958;-78
2022/03/15 10:43:53;;;;;;;;;;;384.80;998.40;;;;;;5094710;28;19904;-78
2022/03/15 10:46:23;;;;;;;;;;;384.70;972.80;;;;;;5093417;28;20003;-79
2022/03/15 10:48:53;;;;;;;;;;;384.90;921.60;;;;;;5094553;28;19912;-79
2022/03/15 10:51:19;;;;;;;;;;;384.90;972.80;;;;;;5093289;28;19916;-79
2022/03/15 10:53:45;;;;;;;;;;;409.70;972.80;;;;;;5094402;28;19916;-79
2022/03/15 10:56:11;;;;;;;;;;;384.90;947.20;;;;;;5092832;28;20348;-80
2022/03/15 10:58:44;;;;;;;;;;;384.90;972.80;;;;;;5082812;28;19919;-79
2022/03/15 11:01:09;;;;;;;;;;;409.70;972.80;;;;;;5089423;28;19908;-79
2022/03/15 11:03:35;;;;;;;;;;;410.00;972.80;;;;;;5093149;28;20268;-79
2022/03/15 11:06:08;;;;;;;;;;;410.30;972.80;;;;;;5093172;28;20348;-79
2022/03/15 11:08:34;;;;;;;;;;;410.30;947.20;;;;;;5092784;28;19927;-79
2022/03/15 11:11:03;;;;;;;;;;;410.40;947.20;;;;;;5077406;28;19959;-78
2022/03/15 11:13:29;;;;;;;;;;;410.20;921.60;;;;;;5093171;28;20028;-79
2022/03/15 11:15:56;;;;;;;;;;;435.20;921.60;;;;;;5093179;28;20382;-79
2022/03/15 11:18:24;;;;;;;;;;;410.50;921.60;;;;;;5083147;28;19908;-79
2022/03/15 11:20:51;;;;;;;;;;;410.50;896.00;;;;;;5071980;28;19908;-79
2022/03/15 11:23:17;;;;;;;;;;;410.30;921.60;;;;;;5072593;28;19905;-82
2022/03/15 11:25:48;;;;;;;;;;;410.20;921.60;;;;;;5073122;28;19908;-76
2022/03/15 11:28:34;;;;;;;;;;;410.00;921.60;;;;;;5069114;28;19908;-78
2022/03/15 11:31:00;;;;;;;;;;;410.50;921.60;;;;;;5069479;28;19908;-79
2022/03/15 11:33:26;;;;;;;;;;;435.30;896.00;;;;;;5072175;28;19917;-78
2022/03/15 11:35:52;;;;;;;;;;;435.50;896.00;;;;;;5072264;28;20411;-77
2022/03/15 11:38:18;;;;;;;;;;;435.30;896.00;;;;;;5072119;28;19999;-78
2022/03/15 11:40:44;;;;;;;;;;;435.50;896.00;;;;;;5072745;28;19911;-77
2022/03/15 11:43:13;;;;;;;;;;;435.70;896.00;;;;;;5071597;28;20284;-78
2022/03/15 11:46:05;;;;;;;;;;;436.10;844.80;;;;;;5070981;28;19908;-78
2022/03/15 11:48:54;;;;;;;;;;;460.80;819.20;;;;;;5014227;28;19948;-78
2022/03/15 11:51:37;;;;;;;;;;;436.10;844.80;;;;;;5014945;28;20027;-78
2022/03/15 11:54:18;;;;;;;;;;;460.90;896.00;;;;;;5015082;28;19913;-77
2022/03/15 11:56:48;;;;;;;;;;;436.10;870.40;;;;;;5015199;28;19998;-78
2022/03/15 11:59:16;;;;;;;;;;;460.80;870.40;;;;;;5015002;28;19904;-77
2022/03/15 12:01:43;;;;;;;;;;;461.00;896.00;;;;;;5014893;28;19915;-78
2022/03/15 12:04:09;;;;;;;;;;;436.10;844.80;;;;;;5014831;28;19954;-78
2022/03/15 12:06:35;;;;;;;;;;;435.80;870.40;;;;;;5014595;28;19956;-78
2022/03/15 12:09:03;;;;;;;;;;;435.70;870.40;;;;;;5014907;28;19905;-77
2022/03/15 12:11:36;;;;;;;;;;;435.50;896.00;;;;;;5014681;28;19905;-78
2022/03/15 12:14:16;;;;;;;;;;;435.50;870.40;;;;;;5014697;28;20095;-77
2022/03/15 12:16:43;;;;;;;;;;;410.50;870.40;;;;;;5014623;28;19905;-78
2022/03/15 12:19:27;;;;;;;;;;;435.20;870.40;;;;;;5014479;28;20373;-77
2022/03/15 12:21:57;;;;;;;;;;;435.20;870.40;;;;;;5031197;28;19905;-78
2022/03/15 12:24:29;;;;;;;;;;;435.20;844.80;;;;;;5017345;28;19905;-78
2022/03/15 12:26:58;;;;;;;;;;;410.50;870.40;;;;;;5052097;28;19979;-78
2022/03/15 12:29:26;;;;;;;;;;;435.30;844.80;;;;;;5055627;28;19904;-79
2022/03/15 12:31:52;;;;;;;;;;;435.50;844.80;;;;;;5055651;28;19913;-79
2022/03/15 12:34:18;;;;;;;;;;;435.90;870.40;;;;;;5056891;28;19909;-79
2022/03/15 12:36:48;;;;;;;;;;;435.80;844.80;;;;;;5056647;28;19947;-79
2022/03/15 12:39:15;;;;;;;;;;;435.90;844.80;;;;;;5055555;28;19912;-79
2022/03/15 12:41:41;;;;;;;;;;;436.00;819.20;;;;;;5055677;28;19905;-79
2022/03/15 12:44:07;;;;;;;;;;;436.10;844.80;;;;;;5055339;28;19912;-79
2022/03/15 12:46:33;;;;;;;;;;;460.80;844.80;;;;;;5055306;28;19927;-81
2022/03/15 12:49:09;;;;;;;;;;;460.80;819.20;;;;;;5055302;28;19904;-79
2022/03/15 12:51:37;;;;;;;;;;;460.90;819.20;;;;;;5052242;28;19963;-78
2022/03/15 12:54:07;;;;;;;;;;;460.80;870.40;;;;;;5056428;28;19909;-79
2022/03/15 12:56:40;;;;;;;;;;;436.10;793.60;;;;;;5070056;28;20005;-80
2022/03/15 12:59:06;;;;;;;;;;;436.10;768.00;;;;;;5082711;28;19909;-77
2022/03/15 13:01:32;;;;;;;;;;;460.80;819.20;;;;;;5074811;28;19935;-77
2022/03/15 13:03:58;;;;;;;;;;;460.80;819.20;;;;;;5074516;28;19908;-76
2022/03/15 13:06:23;;;;;;;;;;;461.00;793.60;;;;;;5074570;28;19904;-76
2022/03/15 13:08:53;;;;;;;;;;;460.80;793.60;;;;;;5075831;28;19908;-76
2022/03/15 13:11:19;;;;;;;;;;;460.90;793.60;;;;;;5074654;28;19904;-77
2022/03/15 13:13:46;;;;;;;;;;;461.00;768.00;;;;;;5074677;28;20429;-77
2022/03/15 13:16:12;;;;;;;;;;;436.10;793.60;;;;;;5075674;28;19905;-77
2022/03/15 13:18:41;;;;;;;;;;;461.00;819.20;;;;;;5075907;28;20276;-78
2022/03/15 13:21:07;;;;;;;;;;;460.80;844.80;;;;;;5076118;28;19905;-77
2022/03/15 13:23:37;;;;;;;;;;;435.90;819.20;;;;;;5076078;28;20356;-80
2022/03/15 13:26:05;;;;;;;;;;;435.50;819.20;;;;;;5074692;28;19919;-78
2022/03/15 13:28:32;;;;;;;;;;;435.60;844.80;;;;;;5074559;28;19987;-77
2022/03/15 13:31:04;;;;;;;;;;;435.90;793.60;;;;;;5074536;28;19908;-77
2022/03/15 13:33:32;;;;;;;;;;;435.80;870.40;;;;;;5074181;28;19963;-77
2022/03/15 13:36:02;;;;;;;;;;;435.70;844.80;;;;;;5074316;28;19957;-78
2022/03/15 13:38:28;;;;;;;;;;;435.80;844.80;;;;;;5075289;28;19911;-77
2022/03/15 13:40:55;;;;;;;;;;;435.70;844.80;;;;;;5074375;28;19905;-77
2022/03/15 13:43:23;;;;;;;;;;;435.60;844.80;;;;;;5075414;28;19934;-77
2022/03/15 13:45:49;;;;;;;;;;;435.70;819.20;;;;;;5074077;28;19905;-77
2022/03/15 13:48:25;;;;;;;;;;;435.30;844.80;;;;;;5075066;28;19934;-77